sensor_id;sensor_type;location;lat;lon;timestamp;P1;durP1;ratioP1;P2;durP2;ratioP2
21432;SDS011;18592;49.708;10.900;2024-01-11T00:01:33;207.13;;;101.90;;
21432;SDS011;18592;49.708;10.900;2024-01-11T00:03:34;208.93;;;98.27;;
21432;SDS011;18592;49.708;10.900;2024-01-11T00:05:36;183.67;;;87.10;;
21432;SDS011;18592;49.708;10.900;2024-01-11T00:07:38;173.47;;;83.80;;
21432;SDS011;18592;49.708;10.900;2024-01-11T00:09:40;148.37;;;75.40;;
21432;SDS011;18592;49.708;10.900;2024-01-11T00:11:43;152.70;;;76.87;;
21432;SDS011;18592;49.708;10.900;2024-01-11T00:13:44;181.80;;;86.57;;
21432;SDS011;18592;49.708;10.900;2024-01-11T00:15:46;178.17;;;86.60;;
21432;SDS011;18592;49.708;10.900;2024-01-11T00:17:47;162.87;;;81.33;;
21432;SDS011;18592;49.708;10.900;2024-01-11T00:19:49;159.10;;;78.03;;
21432;SDS011;18592;49.708;10.900;2024-01-11T00:21:51;179.60;;;85.73;;
21432;SDS011;18592;49.708;10.900;2024-01-11T00:23:53;194.17;;;92.53;;
21432;SDS011;18592;49.708;10.900;2024-01-11T00:25:54;197.30;;;96.07;;
21432;SDS011;18592;49.708;10.900;2024-01-11T00:27:56;171.80;;;84.60;;
21432;SDS011;18592;49.708;10.900;2024-01-11T00:29:57;179.57;;;87.90;;
21432;SDS011;18592;49.708;10.900;2024-01-11T00:31:59;185.00;;;91.33;;
21432;SDS011;18592;49.708;10.900;2024-01-11T00:34:01;208.17;;;99.07;;
21432;SDS011;18592;49.708;10.900;2024-01-11T00:36:03;201.23;;;99.70;;
21432;SDS011;18592;49.708;10.900;2024-01-11T00:38:04;197.50;;;95.60;;
21432;SDS011;18592;49.708;10.900;2024-01-11T00:40:06;200.40;;;94.53;;
21432;SDS011;18592;49.708;10.900;2024-01-11T00:42:08;195.53;;;94.20;;
21432;SDS011;18592;49.708;10.900;2024-01-11T00:44:09;196.10;;;95.13;;
21432;SDS011;18592;49.708;10.900;2024-01-11T00:46:11;206.03;;;96.57;;
21432;SDS011;18592;49.708;10.900;2024-01-11T00:48:13;219.20;;;104.63;;
21432;SDS011;18592;49.708;10.900;2024-01-11T00:50:14;229.53;;;109.73;;
21432;SDS011;18592;49.708;10.900;2024-01-11T00:52:16;231.10;;;110.87;;
21432;SDS011;18592;49.708;10.900;2024-01-11T00:54:17;215.13;;;101.23;;
21432;SDS011;18592;49.708;10.900;2024-01-11T00:56:19;211.43;;;103.57;;
21432;SDS011;18592;49.708;10.900;2024-01-11T00:58:21;221.03;;;106.33;;
21432;SDS011;18592;49.708;10.900;2024-01-11T01:00:22;226.73;;;103.23;;
21432;SDS011;18592;49.708;10.900;2024-01-11T01:02:24;214.77;;;104.90;;
21432;SDS011;18592;49.708;10.900;2024-01-11T01:04:25;220.13;;;105.43;;
21432;SDS011;18592;49.708;10.900;2024-01-11T01:06:27;211.67;;;103.37;;
21432;SDS011;18592;49.708;10.900;2024-01-11T01:08:28;221.70;;;107.73;;
21432;SDS011;18592;49.708;10.900;2024-01-11T01:10:30;199.77;;;97.63;;
21432;SDS011;18592;49.708;10.900;2024-01-11T01:12:32;190.03;;;93.40;;
21432;SDS011;18592;49.708;10.900;2024-01-11T01:14:36;225.17;;;107.47;;
21432;SDS011;18592;49.708;10.900;2024-01-11T01:16:37;216.33;;;104.40;;
21432;SDS011;18592;49.708;10.900;2024-01-11T01:18:39;241.63;;;113.20;;
21432;SDS011;18592;49.708;10.900;2024-01-11T01:20:41;234.50;;;113.47;;
21432;SDS011;18592;49.708;10.900;2024-01-11T01:22:42;180.37;;;90.07;;
21432;SDS011;18592;49.708;10.900;2024-01-11T01:24:44;197.70;;;94.47;;
21432;SDS011;18592;49.708;10.900;2024-01-11T01:26:45;195.93;;;95.40;;
21432;SDS011;18592;49.708;10.900;2024-01-11T01:28:47;214.50;;;102.90;;
21432;SDS011;18592;49.708;10.900;2024-01-11T01:30:48;219.87;;;106.27;;
21432;SDS011;18592;49.708;10.900;2024-01-11T01:32:50;230.23;;;109.37;;
21432;SDS011;18592;49.708;10.900;2024-01-11T01:34:52;230.37;;;112.23;;
21432;SDS011;18592;49.708;10.900;2024-01-11T01:36:53;217.63;;;101.73;;
21432;SDS011;18592;49.708;10.900;2024-01-11T01:38:55;208.27;;;101.33;;
21432;SDS011;18592;49.708;10.900;2024-01-11T01:40:57;216.03;;;104.20;;
21432;SDS011;18592;49.708;10.900;2024-01-11T01:42:58;219.43;;;105.33;;
21432;SDS011;18592;49.708;10.900;2024-01-11T01:45:03;229.00;;;109.93;;
21432;SDS011;18592;49.708;10.900;2024-01-11T01:47:05;227.57;;;109.30;;
21432;SDS011;18592;49.708;10.900;2024-01-11T01:49:07;211.37;;;102.27;;
21432;SDS011;18592;49.708;10.900;2024-01-11T01:51:08;208.93;;;100.17;;
21432;SDS011;18592;49.708;10.900;2024-01-11T01:53:10;230.00;;;106.13;;
21432;SDS011;18592;49.708;10.900;2024-01-11T01:55:12;224.67;;;105.37;;
21432;SDS011;18592;49.708;10.900;2024-01-11T01:57:16;216.97;;;105.50;;
21432;SDS011;18592;49.708;10.900;2024-01-11T01:59:19;208.97;;;100.93;;
21432;SDS011;18592;49.708;10.900;2024-01-11T02:01:22;186.93;;;92.20;;
21432;SDS011;18592;49.708;10.900;2024-01-11T02:03:25;204.37;;;99.63;;
21432;SDS011;18592;49.708;10.900;2024-01-11T02:05:33;212.87;;;99.60;;
21432;SDS011;18592;49.708;10.900;2024-01-11T02:07:35;198.40;;;96.37;;
21432;SDS011;18592;49.708;10.900;2024-01-11T02:09:36;187.53;;;90.97;;
21432;SDS011;18592;49.708;10.900;2024-01-11T02:11:38;175.63;;;88.63;;
21432;SDS011;18592;49.708;10.900;2024-01-11T02:13:42;184.87;;;88.47;;
21432;SDS011;18592;49.708;10.900;2024-01-11T02:15:44;187.70;;;89.40;;
21432;SDS011;18592;49.708;10.900;2024-01-11T02:17:46;195.20;;;93.47;;
21432;SDS011;18592;49.708;10.900;2024-01-11T02:19:48;202.77;;;95.17;;
21432;SDS011;18592;49.708;10.900;2024-01-11T02:21:49;184.47;;;91.30;;
21432;SDS011;18592;49.708;10.900;2024-01-11T02:24:05;160.80;;;78.03;;
21432;SDS011;18592;49.708;10.900;2024-01-11T02:26:08;162.67;;;79.47;;
21432;SDS011;18592;49.708;10.900;2024-01-11T02:28:09;162.63;;;78.23;;
21432;SDS011;18592;49.708;10.900;2024-01-11T02:30:12;157.10;;;77.37;;
21432;SDS011;18592;49.708;10.900;2024-01-11T02:32:14;158.47;;;77.47;;
21432;SDS011;18592;49.708;10.900;2024-01-11T02:34:16;164.37;;;79.93;;
21432;SDS011;18592;49.708;10.900;2024-01-11T02:36:18;155.33;;;76.73;;
21432;SDS011;18592;49.708;10.900;2024-01-11T02:38:21;141.30;;;67.43;;
21432;SDS011;18592;49.708;10.900;2024-01-11T02:40:23;146.07;;;71.60;;
21432;SDS011;18592;49.708;10.900;2024-01-11T02:42:24;143.63;;;71.37;;
21432;SDS011;18592;49.708;10.900;2024-01-11T02:44:26;116.10;;;60.20;;
21432;SDS011;18592;49.708;10.900;2024-01-11T02:46:28;123.23;;;60.50;;
21432;SDS011;18592;49.708;10.900;2024-01-11T02:48:29;132.87;;;64.00;;
21432;SDS011;18592;49.708;10.900;2024-01-11T02:50:31;128.77;;;62.80;;
21432;SDS011;18592;49.708;10.900;2024-01-11T02:52:33;137.20;;;64.93;;
21432;SDS011;18592;49.708;10.900;2024-01-11T02:54:35;125.43;;;63.47;;
21432;SDS011;18592;49.708;10.900;2024-01-11T02:56:37;125.87;;;64.97;;
21432;SDS011;18592;49.708;10.900;2024-01-11T02:58:38;122.73;;;60.63;;
21432;SDS011;18592;49.708;10.900;2024-01-11T03:00:40;122.43;;;63.57;;
21432;SDS011;18592;49.708;10.900;2024-01-11T03:02:41;127.77;;;61.70;;
21432;SDS011;18592;49.708;10.900;2024-01-11T03:04:43;107.90;;;57.37;;
21432;SDS011;18592;49.708;10.900;2024-01-11T03:06:44;122.70;;;59.30;;
21432;SDS011;18592;49.708;10.900;2024-01-11T03:08:46;107.00;;;53.67;;
21432;SDS011;18592;49.708;10.900;2024-01-11T03:10:47;107.87;;;51.53;;
21432;SDS011;18592;49.708;10.900;2024-01-11T03:12:49;96.87;;;48.93;;
21432;SDS011;18592;49.708;10.900;2024-01-11T03:14:54;90.27;;;45.90;;
21432;SDS011;18592;49.708;10.900;2024-01-11T03:16:56;96.20;;;47.73;;
21432;SDS011;18592;49.708;10.900;2024-01-11T03:18:57;98.73;;;51.10;;
21432;SDS011;18592;49.708;10.900;2024-01-11T03:20:59;87.10;;;45.63;;
21432;SDS011;18592;49.708;10.900;2024-01-11T03:23:00;88.33;;;47.87;;
21432;SDS011;18592;49.708;10.900;2024-01-11T03:25:02;91.33;;;46.43;;
21432;SDS011;18592;49.708;10.900;2024-01-11T03:27:04;85.83;;;45.40;;
21432;SDS011;18592;49.708;10.900;2024-01-11T03:29:06;84.27;;;43.20;;
21432;SDS011;18592;49.708;10.900;2024-01-11T03:31:09;81.97;;;42.80;;
21432;SDS011;18592;49.708;10.900;2024-01-11T03:33:11;82.37;;;42.90;;
21432;SDS011;18592;49.708;10.900;2024-01-11T03:35:13;78.10;;;41.77;;
21432;SDS011;18592;49.708;10.900;2024-01-11T03:37:14;75.97;;;39.87;;
21432;SDS011;18592;49.708;10.900;2024-01-11T03:39:17;80.67;;;42.27;;
21432;SDS011;18592;49.708;10.900;2024-01-11T03:41:19;78.30;;;41.30;;
21432;SDS011;18592;49.708;10.900;2024-01-11T03:43:21;75.33;;;41.20;;
21432;SDS011;18592;49.708;10.900;2024-01-11T03:45:22;76.23;;;40.43;;
21432;SDS011;18592;49.708;10.900;2024-01-11T03:47:24;75.53;;;38.30;;
21432;SDS011;18592;49.708;10.900;2024-01-11T03:49:25;75.57;;;37.87;;
21432;SDS011;18592;49.708;10.900;2024-01-11T03:51:27;66.07;;;35.67;;
21432;SDS011;18592;49.708;10.900;2024-01-11T03:53:28;63.60;;;33.03;;
21432;SDS011;18592;49.708;10.900;2024-01-11T03:55:30;62.50;;;33.23;;
21432;SDS011;18592;49.708;10.900;2024-01-11T03:57:31;61.03;;;33.50;;
21432;SDS011;18592;49.708;10.900;2024-01-11T03:59:33;66.07;;;34.60;;
21432;SDS011;18592;49.708;10.900;2024-01-11T04:01:38;52.57;;;29.83;;
21432;SDS011;18592;49.708;10.900;2024-01-11T04:03:41;51.37;;;29.57;;
21432;SDS011;18592;49.708;10.900;2024-01-11T04:05:43;54.30;;;29.83;;
21432;SDS011;18592;49.708;10.900;2024-01-11T04:07:45;55.47;;;29.70;;
21432;SDS011;18592;49.708;10.900;2024-01-11T04:09:46;50.33;;;28.53;;
21432;SDS011;18592;49.708;10.900;2024-01-11T04:11:48;53.10;;;30.67;;
21432;SDS011;18592;49.708;10.900;2024-01-11T04:13:49;52.33;;;29.20;;
21432;SDS011;18592;49.708;10.900;2024-01-11T04:15:50;52.57;;;28.33;;
21432;SDS011;18592;49.708;10.900;2024-01-11T04:17:52;49.37;;;27.97;;
21432;SDS011;18592;49.708;10.900;2024-01-11T04:19:54;47.73;;;27.07;;
21432;SDS011;18592;49.708;10.900;2024-01-11T04:21:55;47.87;;;28.03;;
21432;SDS011;18592;49.708;10.900;2024-01-11T04:23:57;50.47;;;27.50;;
21432;SDS011;18592;49.708;10.900;2024-01-11T04:25:58;50.97;;;27.80;;
21432;SDS011;18592;49.708;10.900;2024-01-11T04:28:00;48.90;;;27.50;;
21432;SDS011;18592;49.708;10.900;2024-01-11T04:30:02;45.13;;;27.20;;
21432;SDS011;18592;49.708;10.900;2024-01-11T04:32:03;47.03;;;25.73;;
21432;SDS011;18592;49.708;10.900;2024-01-11T04:34:05;47.07;;;26.90;;
21432;SDS011;18592;49.708;10.900;2024-01-11T04:36:07;54.20;;;27.57;;
21432;SDS011;18592;49.708;10.900;2024-01-11T04:38:09;46.70;;;26.20;;
21432;SDS011;18592;49.708;10.900;2024-01-11T04:40:11;41.57;;;23.73;;
21432;SDS011;18592;49.708;10.900;2024-01-11T04:42:12;42.63;;;25.00;;
21432;SDS011;18592;49.708;10.900;2024-01-11T04:44:14;46.07;;;25.57;;
21432;SDS011;18592;49.708;10.900;2024-01-11T04:46:20;40.63;;;22.43;;
21432;SDS011;18592;49.708;10.900;2024-01-11T04:48:26;37.57;;;21.53;;
21432;SDS011;18592;49.708;10.900;2024-01-11T04:50:27;36.63;;;21.00;;
21432;SDS011;18592;49.708;10.900;2024-01-11T04:52:29;36.93;;;21.90;;
21432;SDS011;18592;49.708;10.900;2024-01-11T04:54:31;36.33;;;20.70;;
21432;SDS011;18592;49.708;10.900;2024-01-11T04:56:32;35.57;;;20.50;;
21432;SDS011;18592;49.708;10.900;2024-01-11T04:58:38;39.27;;;21.90;;
21432;SDS011;18592;49.708;10.900;2024-01-11T05:00:41;37.07;;;21.63;;
21432;SDS011;18592;49.708;10.900;2024-01-11T05:02:42;36.80;;;20.93;;
21432;SDS011;18592;49.708;10.900;2024-01-11T05:04:44;32.73;;;20.13;;
21432;SDS011;18592;49.708;10.900;2024-01-11T05:06:45;35.40;;;20.50;;
21432;SDS011;18592;49.708;10.900;2024-01-11T05:08:48;36.27;;;20.63;;
21432;SDS011;18592;49.708;10.900;2024-01-11T05:10:50;34.63;;;20.43;;
21432;SDS011;18592;49.708;10.900;2024-01-11T05:12:52;35.33;;;20.67;;
21432;SDS011;18592;49.708;10.900;2024-01-11T05:14:54;34.00;;;19.43;;
21432;SDS011;18592;49.708;10.900;2024-01-11T05:16:55;32.63;;;19.87;;
21432;SDS011;18592;49.708;10.900;2024-01-11T05:18:57;33.47;;;19.93;;
21432;SDS011;18592;49.708;10.900;2024-01-11T05:20:59;33.77;;;18.90;;
21432;SDS011;18592;49.708;10.900;2024-01-11T05:23:01;34.37;;;19.40;;
21432;SDS011;18592;49.708;10.900;2024-01-11T05:25:02;31.87;;;19.53;;
21432;SDS011;18592;49.708;10.900;2024-01-11T05:27:04;32.03;;;19.63;;
21432;SDS011;18592;49.708;10.900;2024-01-11T05:29:06;32.13;;;19.30;;
21432;SDS011;18592;49.708;10.900;2024-01-11T05:31:11;31.73;;;19.03;;
21432;SDS011;18592;49.708;10.900;2024-01-11T05:33:14;37.27;;;21.53;;
21432;SDS011;18592;49.708;10.900;2024-01-11T05:35:16;38.30;;;22.00;;
21432;SDS011;18592;49.708;10.900;2024-01-11T05:37:17;34.97;;;20.97;;
21432;SDS011;18592;49.708;10.900;2024-01-11T05:39:19;32.60;;;20.23;;
21432;SDS011;18592;49.708;10.900;2024-01-11T05:41:20;34.07;;;20.60;;
21432;SDS011;18592;49.708;10.900;2024-01-11T05:43:22;32.87;;;21.03;;
21432;SDS011;18592;49.708;10.900;2024-01-11T05:45:24;35.60;;;21.07;;
21432;SDS011;18592;49.708;10.900;2024-01-11T05:47:41;32.83;;;18.67;;
21432;SDS011;18592;49.708;10.900;2024-01-11T05:49:42;29.63;;;17.53;;
21432;SDS011;18592;49.708;10.900;2024-01-11T05:51:44;27.57;;;16.83;;
21432;SDS011;18592;49.708;10.900;2024-01-11T05:53:45;27.53;;;17.10;;
21432;SDS011;18592;49.708;10.900;2024-01-11T05:55:47;28.70;;;17.23;;
21432;SDS011;18592;49.708;10.900;2024-01-11T05:57:49;27.97;;;16.10;;
21432;SDS011;18592;49.708;10.900;2024-01-11T05:59:51;27.97;;;16.47;;
21432;SDS011;18592;49.708;10.900;2024-01-11T06:01:52;27.10;;;16.57;;
21432;SDS011;18592;49.708;10.900;2024-01-11T06:03:54;28.23;;;16.30;;
21432;SDS011;18592;49.708;10.900;2024-01-11T06:05:56;28.40;;;16.80;;
21432;SDS011;18592;49.708;10.900;2024-01-11T06:07:57;26.57;;;16.23;;
21432;SDS011;18592;49.708;10.900;2024-01-11T06:09:59;27.30;;;15.70;;
21432;SDS011;18592;49.708;10.900;2024-01-11T06:12:04;24.23;;;15.30;;
21432;SDS011;18592;49.708;10.900;2024-01-11T06:14:06;24.80;;;15.93;;
21432;SDS011;18592;49.708;10.900;2024-01-11T06:16:08;25.33;;;15.30;;
21432;SDS011;18592;49.708;10.900;2024-01-11T06:18:13;29.03;;;16.03;;
21432;SDS011;18592;49.708;10.900;2024-01-11T06:20:15;27.73;;;15.07;;
21432;SDS011;18592;49.708;10.900;2024-01-11T06:22:16;26.23;;;15.13;;
21432;SDS011;18592;49.708;10.900;2024-01-11T06:24:18;25.80;;;15.90;;
21432;SDS011;18592;49.708;10.900;2024-01-11T06:26:20;25.90;;;15.60;;
21432;SDS011;18592;49.708;10.900;2024-01-11T06:28:22;26.97;;;15.57;;
21432;SDS011;18592;49.708;10.900;2024-01-11T06:30:23;27.07;;;15.57;;
21432;SDS011;18592;49.708;10.900;2024-01-11T06:32:25;26.77;;;16.13;;
21432;SDS011;18592;49.708;10.900;2024-01-11T06:34:26;24.20;;;14.87;;
21432;SDS011;18592;49.708;10.900;2024-01-11T06:36:29;25.27;;;15.73;;
21432;SDS011;18592;49.708;10.900;2024-01-11T06:38:31;24.47;;;15.27;;
21432;SDS011;18592;49.708;10.900;2024-01-11T06:40:33;25.97;;;16.63;;
21432;SDS011;18592;49.708;10.900;2024-01-11T06:42:34;27.77;;;16.20;;
21432;SDS011;18592;49.708;10.900;2024-01-11T06:44:36;27.03;;;16.57;;
21432;SDS011;18592;49.708;10.900;2024-01-11T06:46:37;23.10;;;15.47;;
21432;SDS011;18592;49.708;10.900;2024-01-11T06:48:42;24.40;;;15.50;;
21432;SDS011;18592;49.708;10.900;2024-01-11T06:50:43;24.27;;;15.60;;
21432;SDS011;18592;49.708;10.900;2024-01-11T06:52:45;23.63;;;14.70;;
21432;SDS011;18592;49.708;10.900;2024-01-11T06:54:46;22.73;;;14.30;;
21432;SDS011;18592;49.708;10.900;2024-01-11T06:56:48;24.47;;;14.93;;
21432;SDS011;18592;49.708;10.900;2024-01-11T06:58:50;23.13;;;14.43;;
21432;SDS011;18592;49.708;10.900;2024-01-11T07:00:51;21.23;;;13.97;;
21432;SDS011;18592;49.708;10.900;2024-01-11T07:02:53;20.33;;;13.80;;
21432;SDS011;18592;49.708;10.900;2024-01-11T07:04:55;23.33;;;14.53;;
21432;SDS011;18592;49.708;10.900;2024-01-11T07:06:56;22.17;;;14.17;;
21432;SDS011;18592;49.708;10.900;2024-01-11T07:08:58;25.07;;;15.43;;
21432;SDS011;18592;49.708;10.900;2024-01-11T07:11:00;23.13;;;14.53;;
21432;SDS011;18592;49.708;10.900;2024-01-11T07:13:03;21.57;;;14.00;;
21432;SDS011;18592;49.708;10.900;2024-01-11T07:15:05;24.40;;;14.00;;
21432;SDS011;18592;49.708;10.900;2024-01-11T07:17:09;22.90;;;14.03;;
21432;SDS011;18592;49.708;10.900;2024-01-11T07:19:10;24.73;;;14.97;;
21432;SDS011;18592;49.708;10.900;2024-01-11T07:21:13;25.03;;;15.13;;
21432;SDS011;18592;49.708;10.900;2024-01-11T07:23:40;24.73;;;14.73;;
21432;SDS011;18592;49.708;10.900;2024-01-11T07:26:23;25.33;;;14.13;;
21432;SDS011;18592;49.708;10.900;2024-01-11T07:29:16;26.20;;;15.87;;
21432;SDS011;18592;49.708;10.900;2024-01-11T07:31:40;25.60;;;15.03;;
21432;SDS011;18592;49.708;10.900;2024-01-11T07:33:53;20.80;;;13.60;;
21432;SDS011;18592;49.708;10.900;2024-01-11T07:36:37;27.47;;;14.43;;
21432;SDS011;18592;49.708;10.900;2024-01-11T07:38:43;25.67;;;15.40;;
21432;SDS011;18592;49.708;10.900;2024-01-11T07:40:56;27.57;;;15.13;;
21432;SDS011;18592;49.708;10.900;2024-01-11T07:43:13;28.13;;;16.30;;
21432;SDS011;18592;49.708;10.900;2024-01-11T07:45:21;24.80;;;15.07;;
21432;SDS011;18592;49.708;10.900;2024-01-11T07:47:35;25.43;;;15.50;;
21432;SDS011;18592;49.708;10.900;2024-01-11T07:49:45;23.53;;;14.47;;
21432;SDS011;18592;49.708;10.900;2024-01-11T07:51:47;26.57;;;16.10;;
21432;SDS011;18592;49.708;10.900;2024-01-11T07:53:48;26.47;;;16.73;;
21432;SDS011;18592;49.708;10.900;2024-01-11T07:56:18;26.53;;;15.77;;
21432;SDS011;18592;49.708;10.900;2024-01-11T07:58:45;23.00;;;14.73;;
21432;SDS011;18592;49.708;10.900;2024-01-11T08:00:57;28.03;;;16.10;;
21432;SDS011;18592;49.708;10.900;2024-01-11T08:03:13;25.37;;;15.90;;
21432;SDS011;18592;49.708;10.900;2024-01-11T08:05:34;22.20;;;13.80;;
21432;SDS011;18592;49.708;10.900;2024-01-11T08:07:39;22.87;;;14.40;;
21432;SDS011;18592;49.708;10.900;2024-01-11T08:09:55;24.90;;;15.97;;
21432;SDS011;18592;49.708;10.900;2024-01-11T08:12:31;22.37;;;14.37;;
21432;SDS011;18592;49.708;10.900;2024-01-11T08:14:33;21.80;;;13.37;;
21432;SDS011;18592;49.708;10.900;2024-01-11T08:16:35;21.53;;;13.10;;
21432;SDS011;18592;49.708;10.900;2024-01-11T08:18:36;22.13;;;14.30;;
21432;SDS011;18592;49.708;10.900;2024-01-11T08:20:38;22.10;;;14.13;;
21432;SDS011;18592;49.708;10.900;2024-01-11T08:22:41;24.57;;;13.77;;
21432;SDS011;18592;49.708;10.900;2024-01-11T08:24:44;21.07;;;12.77;;
21432;SDS011;18592;49.708;10.900;2024-01-11T08:26:46;19.20;;;12.37;;
21432;SDS011;18592;49.708;10.900;2024-01-11T08:28:48;19.60;;;12.50;;
21432;SDS011;18592;49.708;10.900;2024-01-11T08:31:41;18.80;;;11.53;;
21432;SDS011;18592;49.708;10.900;2024-01-11T08:34:18;20.63;;;11.07;;
21432;SDS011;18592;49.708;10.900;2024-01-11T08:36:31;17.63;;;10.90;;
21432;SDS011;18592;49.708;10.900;2024-01-11T08:38:46;19.30;;;11.10;;
21432;SDS011;18592;49.708;10.900;2024-01-11T08:41:45;18.27;;;11.37;;
21432;SDS011;18592;49.708;10.900;2024-01-11T08:43:47;19.83;;;12.43;;
21432;SDS011;18592;49.708;10.900;2024-01-11T08:46:34;17.83;;;10.97;;
21432;SDS011;18592;49.708;10.900;2024-01-11T08:48:45;16.57;;;11.00;;
21432;SDS011;18592;49.708;10.900;2024-01-11T08:50:53;19.87;;;12.10;;
21432;SDS011;18592;49.708;10.900;2024-01-11T08:52:57;19.10;;;11.50;;
21432;SDS011;18592;49.708;10.900;2024-01-11T08:55:10;19.37;;;11.40;;
21432;SDS011;18592;49.708;10.900;2024-01-11T08:57:14;19.53;;;11.10;;
21432;SDS011;18592;49.708;10.900;2024-01-11T08:59:46;18.17;;;11.00;;
21432;SDS011;18592;49.708;10.900;2024-01-11T09:02:13;17.27;;;11.13;;
21432;SDS011;18592;49.708;10.900;2024-01-11T09:04:33;19.30;;;11.80;;
21432;SDS011;18592;49.708;10.900;2024-01-11T09:06:45;17.70;;;11.27;;
21432;SDS011;18592;49.708;10.900;2024-01-11T09:08:52;18.53;;;11.77;;
21432;SDS011;18592;49.708;10.900;2024-01-11T09:10:58;19.37;;;12.20;;
21432;SDS011;18592;49.708;10.900;2024-01-11T09:13:02;19.07;;;11.93;;
21432;SDS011;18592;49.708;10.900;2024-01-11T09:15:24;22.77;;;13.27;;
21432;SDS011;18592;49.708;10.900;2024-01-11T09:17:35;21.10;;;12.03;;
21432;SDS011;18592;49.708;10.900;2024-01-11T09:19:42;22.80;;;13.03;;
21432;SDS011;18592;49.708;10.900;2024-01-11T09:21:45;23.20;;;12.93;;
21432;SDS011;18592;49.708;10.900;2024-01-11T09:23:59;23.80;;;13.87;;
21432;SDS011;18592;49.708;10.900;2024-01-11T09:26:12;23.50;;;14.17;;
21432;SDS011;18592;49.708;10.900;2024-01-11T09:28:40;26.10;;;14.13;;
21432;SDS011;18592;49.708;10.900;2024-01-11T09:31:39;22.13;;;13.17;;
21432;SDS011;18592;49.708;10.900;2024-01-11T09:33:44;25.30;;;13.73;;
21432;SDS011;18592;49.708;10.900;2024-01-11T09:36:21;21.77;;;13.23;;
21432;SDS011;18592;49.708;10.900;2024-01-11T09:38:24;23.40;;;13.17;;
21432;SDS011;18592;49.708;10.900;2024-01-11T09:40:30;22.97;;;13.23;;
21432;SDS011;18592;49.708;10.900;2024-01-11T09:43:15;22.30;;;13.10;;
21432;SDS011;18592;49.708;10.900;2024-01-11T09:45:37;22.10;;;12.77;;
21432;SDS011;18592;49.708;10.900;2024-01-11T09:47:40;20.20;;;12.68;;
21432;SDS011;18592;49.708;10.900;2024-01-11T09:50:01;24.40;;;14.85;;
21432;SDS011;18592;49.708;10.900;2024-01-11T09:52:34;22.55;;;13.55;;
21432;SDS011;18592;49.708;10.900;2024-01-11T09:55:11;22.08;;;12.82;;
21432;SDS011;18592;49.708;10.900;2024-01-11T09:57:33;23.33;;;12.63;;
21432;SDS011;18592;49.708;10.900;2024-01-11T09:59:58;20.95;;;12.45;;
21432;SDS011;18592;49.708;10.900;2024-01-11T10:02:23;21.50;;;13.02;;
21432;SDS011;18592;49.708;10.900;2024-01-11T10:04:42;20.90;;;14.05;;
21432;SDS011;18592;49.708;10.900;2024-01-11T10:06:45;21.33;;;12.75;;
21432;SDS011;18592;49.708;10.900;2024-01-11T10:08:47;22.43;;;13.37;;
21432;SDS011;18592;49.708;10.900;2024-01-11T10:10:51;19.92;;;12.25;;
21432;SDS011;18592;49.708;10.900;2024-01-11T10:12:55;18.73;;;11.88;;
21432;SDS011;18592;49.708;10.900;2024-01-11T10:15:09;18.30;;;12.33;;
21432;SDS011;18592;49.708;10.900;2024-01-11T10:17:24;23.27;;;13.70;;
21432;SDS011;18592;49.708;10.900;2024-01-11T10:19:34;21.90;;;12.93;;
21432;SDS011;18592;49.708;10.900;2024-01-11T10:21:42;18.38;;;11.85;;
21432;SDS011;18592;49.708;10.900;2024-01-11T10:23:59;17.98;;;11.68;;
21432;SDS011;18592;49.708;10.900;2024-01-11T10:26:05;18.15;;;11.55;;
21432;SDS011;18592;49.708;10.900;2024-01-11T10:28:25;20.13;;;12.80;;
21432;SDS011;18592;49.708;10.900;2024-01-11T10:31:01;20.75;;;12.10;;
21432;SDS011;18592;49.708;10.900;2024-01-11T10:33:10;18.40;;;11.60;;
21432;SDS011;18592;49.708;10.900;2024-01-11T10:35:13;16.27;;;10.45;;
21432;SDS011;18592;49.708;10.900;2024-01-11T10:37:31;16.48;;;10.25;;
21432;SDS011;18592;49.708;10.900;2024-01-11T10:39:36;17.45;;;11.18;;
21432;SDS011;18592;49.708;10.900;2024-01-11T10:41:40;17.98;;;11.40;;
21432;SDS011;18592;49.708;10.900;2024-01-11T10:43:46;17.88;;;11.88;;
21432;SDS011;18592;49.708;10.900;2024-01-11T10:45:50;19.60;;;12.40;;
21432;SDS011;18592;49.708;10.900;2024-01-11T10:47:55;19.33;;;11.65;;
21432;SDS011;18592;49.708;10.900;2024-01-11T10:50:04;18.73;;;12.50;;
21432;SDS011;18592;49.708;10.900;2024-01-11T10:52:09;15.57;;;10.35;;
21432;SDS011;18592;49.708;10.900;2024-01-11T10:54:13;16.13;;;10.93;;
21432;SDS011;18592;49.708;10.900;2024-01-11T10:56:16;20.38;;;11.23;;
21432;SDS011;18592;49.708;10.900;2024-01-11T10:58:18;17.65;;;10.98;;
21432;SDS011;18592;49.708;10.900;2024-01-11T11:00:22;15.77;;;10.15;;
21432;SDS011;18592;49.708;10.900;2024-01-11T11:02:24;15.23;;;10.40;;
21432;SDS011;18592;49.708;10.900;2024-01-11T11:04:27;20.00;;;11.05;;
21432;SDS011;18592;49.708;10.900;2024-01-11T11:06:30;17.35;;;11.98;;
21432;SDS011;18592;49.708;10.900;2024-01-11T11:08:34;18.48;;;12.13;;
21432;SDS011;18592;49.708;10.900;2024-01-11T11:10:36;18.77;;;12.13;;
21432;SDS011;18592;49.708;10.900;2024-01-11T11:12:46;21.40;;;12.80;;
21432;SDS011;18592;49.708;10.900;2024-01-11T11:14:50;18.20;;;11.98;;
21432;SDS011;18592;49.708;10.900;2024-01-11T11:16:53;21.15;;;12.00;;
21432;SDS011;18592;49.708;10.900;2024-01-11T11:18:55;22.38;;;13.10;;
21432;SDS011;18592;49.708;10.900;2024-01-11T11:20:57;19.58;;;12.02;;
21432;SDS011;18592;49.708;10.900;2024-01-11T11:23:03;21.63;;;12.10;;
21432;SDS011;18592;49.708;10.900;2024-01-11T11:27:13;18.98;;;12.10;;
21432;SDS011;18592;49.708;10.900;2024-01-11T11:29:15;20.40;;;11.93;;
21432;SDS011;18592;49.708;10.900;2024-01-11T11:31:41;21.80;;;11.63;;
21432;SDS011;18592;49.708;10.900;2024-01-11T11:33:43;21.85;;;12.10;;
21432;SDS011;18592;49.708;10.900;2024-01-11T11:35:48;20.63;;;11.95;;
21432;SDS011;18592;49.708;10.900;2024-01-11T11:37:56;22.20;;;12.63;;
21432;SDS011;18592;49.708;10.900;2024-01-11T11:39:58;20.65;;;10.90;;
21432;SDS011;18592;49.708;10.900;2024-01-11T11:42:03;18.58;;;11.48;;
21432;SDS011;18592;49.708;10.900;2024-01-11T11:44:06;22.63;;;12.30;;
21432;SDS011;18592;49.708;10.900;2024-01-11T11:46:08;17.23;;;11.63;;
21432;SDS011;18592;49.708;10.900;2024-01-11T11:50:30;17.33;;;11.48;;
21432;SDS011;18592;49.708;10.900;2024-01-11T11:52:33;19.73;;;11.65;;
21432;SDS011;18592;49.708;10.900;2024-01-11T11:54:39;20.80;;;11.63;;
21432;SDS011;18592;49.708;10.900;2024-01-11T11:56:40;17.33;;;11.05;;
21432;SDS011;18592;49.708;10.900;2024-01-11T11:58:42;18.77;;;11.02;;
21432;SDS011;18592;49.708;10.900;2024-01-11T12:00:45;18.98;;;11.07;;
21432;SDS011;18592;49.708;10.900;2024-01-11T12:02:49;18.63;;;11.05;;
21432;SDS011;18592;49.708;10.900;2024-01-11T12:04:54;17.75;;;11.55;;
21432;SDS011;18592;49.708;10.900;2024-01-11T12:06:56;17.08;;;10.75;;